createdAt,value
2019-02-24T00:00:07.322Z,0.80
2019-02-24T00:02:33.877Z,0.67
2019-02-24T00:05:00.445Z,0.59
2019-02-24T00:07:27.034Z,0.60
2019-02-24T00:09:53.637Z,0.66
2019-02-24T00:12:20.198Z,0.59
2019-02-24T00:14:46.778Z,0.73
2019-02-24T00:17:13.352Z,0.63
2019-02-24T00:19:39.942Z,0.45
2019-02-24T00:22:06.509Z,0.59
2019-02-24T00:24:33.058Z,0.54
2019-02-24T00:26:59.608Z,0.63
2019-02-24T00:29:26.233Z,0.51
2019-02-24T00:31:52.806Z,0.39
2019-02-24T00:34:19.348Z,0.32
2019-02-24T00:36:45.922Z,0.22
2019-02-24T00:39:12.466Z,0.16
2019-02-24T00:41:39.016Z,0.13
2019-02-24T00:44:05.594Z,0.09
2019-02-24T00:46:32.144Z,0.07
2019-02-24T00:48:58.725Z,0.10
2019-02-24T00:51:25.286Z,0.10
2019-02-24T00:53:51.853Z,0.11
2019-02-24T00:56:19.233Z,0.10
2019-02-24T00:58:45.815Z,0.15
2019-02-24T01:01:12.373Z,0.06
2019-02-24T01:03:38.933Z,0.00
2019-02-24T01:06:05.496Z,-0.01
2019-02-24T01:08:32.081Z,0.02
2019-02-24T01:10:58.626Z,0.05
2019-02-24T01:13:25.188Z,0.05
2019-02-24T01:15:51.748Z,-0.02
2019-02-24T01:18:18.322Z,-0.05
2019-02-24T01:20:44.895Z,-0.03
2019-02-24T01:23:11.455Z,0.03
2019-02-24T01:25:38.146Z,0.09
2019-02-24T01:28:04.736Z,0.00
2019-02-24T01:30:31.446Z,0.18
2019-02-24T01:32:58.015Z,0.35
2019-02-24T01:35:24.595Z,0.39
2019-02-24T01:37:51.162Z,0.45
2019-02-24T01:40:17.774Z,0.41
2019-02-24T01:42:44.350Z,0.40
2019-02-24T01:45:10.951Z,0.29
2019-02-24T01:47:37.595Z,0.11
2019-02-24T01:50:04.996Z,0.11
2019-02-24T01:52:31.550Z,0.10
2019-02-24T01:54:58.141Z,-0.09
2019-02-24T01:57:24.678Z,-0.24
2019-02-24T01:59:51.336Z,-0.27
2019-02-24T02:02:17.880Z,-0.33
2019-02-24T02:04:44.481Z,-0.37
2019-02-24T02:07:11.026Z,-0.39
2019-02-24T02:09:37.660Z,-0.39
2019-02-24T02:12:04.357Z,-0.42
2019-02-24T02:14:31.678Z,-0.41
2019-02-24T02:16:59.701Z,-0.42
2019-02-24T02:19:27.431Z,-0.28
2019-02-24T02:21:53.954Z,0.41
2019-02-24T02:24:20.517Z,0.31
2019-02-24T02:26:47.066Z,0.50
2019-02-24T02:29:13.771Z,0.66
2019-02-24T02:31:40.318Z,0.77
2019-02-24T02:34:06.896Z,0.72
2019-02-24T02:36:33.458Z,0.67
2019-02-24T02:39:00.210Z,0.68
2019-02-24T02:41:26.752Z,0.59
2019-02-24T02:43:53.339Z,0.51
2019-02-24T02:46:19.890Z,0.95
2019-02-24T02:48:46.467Z,0.96
2019-02-24T02:51:13.016Z,0.64
2019-02-24T02:53:39.572Z,0.43
2019-02-24T02:56:06.123Z,0.43
2019-02-24T02:58:32.708Z,0.52
2019-02-24T03:00:59.291Z,0.60
2019-02-24T03:03:25.854Z,0.63
2019-02-24T03:06:00.363Z,0.42
2019-02-24T03:08:46.602Z,0.74
2019-02-24T03:11:13.698Z,1.05
2019-02-24T03:13:40.273Z,1.13
2019-02-24T03:16:06.850Z,1.23
2019-02-24T03:18:33.401Z,1.21
2019-02-24T03:20:59.964Z,0.82
2019-02-24T03:23:26.508Z,0.74
2019-02-24T03:25:53.086Z,0.65
2019-02-24T03:28:19.642Z,0.58
2019-02-24T03:30:46.210Z,0.47
2019-02-24T03:33:12.758Z,0.40
2019-02-24T03:35:39.332Z,0.41
2019-02-24T03:38:05.935Z,0.84
2019-02-24T03:40:32.504Z,0.59
2019-02-24T03:42:59.048Z,0.55
2019-02-24T03:45:25.617Z,0.47
2019-02-24T03:47:52.164Z,0.21
2019-02-24T03:50:18.751Z,0.12
2019-02-24T03:52:45.321Z,0.19
2019-02-24T03:55:11.915Z,0.23
2019-02-24T03:57:38.479Z,0.58
2019-02-24T04:00:05.315Z,0.36
2019-02-24T04:02:31.889Z,0.40
2019-02-24T04:04:58.480Z,0.34
2019-02-24T04:07:25.059Z,0.12
2019-02-24T04:09:51.776Z,0.00
2019-02-24T04:12:18.336Z,-0.20
2019-02-24T04:14:44.922Z,-0.29
2019-02-24T04:17:11.496Z,-0.22
2019-02-24T04:19:38.042Z,0.03
2019-02-24T04:22:04.622Z,-0.07
2019-02-24T04:24:31.182Z,-0.09
2019-02-24T04:26:57.758Z,0.19
2019-02-24T04:29:25.121Z,0.61
2019-02-24T04:31:52.009Z,0.48
2019-02-24T04:34:18.579Z,0.17
2019-02-24T04:36:45.158Z,-0.02
2019-02-24T04:39:12.406Z,0.00
2019-02-24T04:41:39.104Z,-0.04
2019-02-24T04:44:05.667Z,0.16
2019-02-24T04:46:32.280Z,0.29
2019-02-24T04:48:58.929Z,0.36
2019-02-24T04:51:25.549Z,0.49
2019-02-24T04:53:52.131Z,0.58
2019-02-24T04:56:18.720Z,0.70
2019-02-24T04:58:45.395Z,0.39
2019-02-24T05:01:11.970Z,0.33
2019-02-24T05:03:38.593Z,0.12
2019-02-24T05:06:05.144Z,-0.08
2019-02-24T05:08:31.704Z,-0.27
2019-02-24T05:10:58.312Z,-0.19
2019-02-24T05:13:24.886Z,-0.36
2019-02-24T05:15:51.443Z,-0.47
2019-02-24T05:18:18.007Z,-0.63
2019-02-24T05:20:44.557Z,-0.69
2019-02-24T05:23:11.120Z,-0.73
2019-02-24T05:25:37.669Z,-0.84
2019-02-24T05:28:04.233Z,-0.92
2019-02-24T05:30:30.793Z,-0.87
2019-02-24T05:32:57.369Z,-0.73
2019-02-24T05:35:23.910Z,-0.66
2019-02-24T05:37:50.473Z,-0.56
2019-02-24T05:40:17.022Z,-0.52
2019-02-24T05:42:43.589Z,-0.70
2019-02-24T05:45:10.129Z,-0.84
2019-02-24T05:47:36.724Z,-0.85
2019-02-24T05:50:03.403Z,-0.88
2019-02-24T05:52:30.114Z,-0.97
2019-02-24T05:54:56.670Z,-1.08
2019-02-24T05:57:23.257Z,-1.16
2019-02-24T05:59:55.212Z,-1.22
2019-02-24T06:02:18.286Z,-1.19
2019-02-24T06:04:44.846Z,-1.11
2019-02-24T06:07:11.403Z,-1.10
2019-02-24T06:09:37.964Z,-1.17
2019-02-24T06:12:04.513Z,-1.14
2019-02-24T06:14:31.091Z,-1.11
2019-02-24T06:16:57.649Z,-1.08
2019-02-24T06:19:24.216Z,-1.07
2019-02-24T06:21:50.766Z,-0.93
2019-02-24T06:24:17.376Z,-0.82
2019-02-24T06:26:43.936Z,-1.02
2019-02-24T06:29:10.601Z,-0.90
2019-02-24T06:31:37.150Z,-0.94
2019-02-24T06:34:03.821Z,-0.98
2019-02-24T06:36:30.372Z,-1.00
2019-02-24T06:38:56.948Z,-1.03
2019-02-24T06:41:23.491Z,-1.03
2019-02-24T06:43:50.050Z,-1.04
2019-02-24T06:46:16.594Z,-0.98
2019-02-24T06:48:43.171Z,-0.95
2019-02-24T06:51:10.753Z,-0.92
2019-02-24T06:53:37.322Z,-0.87
2019-02-24T06:56:03.881Z,-0.83
2019-02-24T06:58:30.466Z,-0.73
2019-02-24T07:00:57.039Z,-0.63
2019-02-24T07:03:23.574Z,-0.41
2019-02-24T07:05:50.142Z,-0.31
2019-02-24T07:08:16.712Z,0.20
2019-02-24T07:10:43.267Z,0.27
2019-02-24T07:13:09.883Z,0.14
2019-02-24T07:15:36.475Z,0.27
2019-02-24T07:18:03.064Z,0.40
2019-02-24T07:20:29.671Z,0.42
2019-02-24T07:22:56.284Z,0.58
2019-02-24T07:25:22.848Z,0.79
2019-02-24T07:27:49.461Z,0.79
2019-02-24T07:30:23.166Z,0.97
2019-02-24T07:32:44.498Z,0.81
2019-02-24T07:35:11.065Z,0.76
2019-02-24T07:37:37.620Z,0.71
2019-02-24T07:40:04.194Z,0.83
2019-02-24T07:42:30.740Z,1.06
2019-02-24T07:44:57.297Z,1.19
2019-02-24T07:47:23.928Z,1.31
2019-02-24T07:49:50.487Z,1.43
2019-02-24T07:52:17.035Z,1.62
2019-02-24T07:54:43.627Z,2.10
2019-02-24T07:57:10.320Z,2.19
2019-02-24T07:59:36.889Z,2.39
2019-02-24T08:02:03.465Z,2.95
2019-02-24T08:04:30.048Z,4.18
2019-02-24T08:06:56.733Z,6.60
2019-02-24T08:09:23.293Z,8.98
2019-02-24T08:11:49.853Z,11.26
2019-02-24T08:14:16.399Z,11.88
2019-02-24T08:16:42.968Z,11.97
2019-02-24T08:19:09.527Z,11.04
2019-02-24T08:21:36.063Z,11.88
2019-02-24T08:24:02.628Z,13.33
2019-02-24T08:26:29.195Z,15.38
2019-02-24T08:28:55.772Z,17.47
2019-02-24T08:31:22.340Z,16.69
2019-02-24T08:33:48.884Z,14.58
2019-02-24T08:36:15.446Z,15.55
2019-02-24T08:38:42.009Z,17.81
2019-02-24T08:41:08.622Z,19.72
2019-02-24T08:43:35.174Z,21.55
2019-02-24T08:46:01.742Z,23.72
2019-02-24T08:48:28.278Z,25.53
2019-02-24T08:50:54.838Z,25.74
2019-02-24T08:53:21.382Z,22.07
2019-02-24T08:55:47.947Z,23.20
2019-02-24T08:58:14.500Z,24.54
2019-02-24T09:00:50.503Z,27.07
2019-02-24T09:03:09.522Z,25.50
2019-02-24T09:05:36.105Z,24.23
2019-02-24T09:08:02.675Z,23.10
2019-02-24T09:10:29.246Z,25.86
2019-02-24T09:12:56.379Z,27.40
2019-02-24T09:15:23.255Z,28.22
2019-02-24T09:17:49.821Z,27.94
2019-02-24T09:20:16.380Z,28.31
2019-02-24T09:22:43.053Z,26.84
2019-02-24T09:25:09.626Z,26.84
2019-02-24T09:27:36.226Z,27.12
2019-02-24T09:30:03.164Z,28.58
2019-02-24T09:32:29.738Z,27.83
2019-02-24T09:34:56.267Z,27.54
2019-02-24T09:37:22.824Z,28.44
2019-02-24T09:39:49.363Z,27.92
2019-02-24T09:42:15.922Z,29.28
2019-02-24T09:44:42.472Z,30.22
2019-02-24T09:47:09.029Z,31.08
2019-02-24T09:49:35.574Z,31.30
2019-02-24T09:52:02.150Z,30.86
2019-02-24T09:54:28.747Z,31.53
2019-02-24T09:56:55.305Z,30.67
2019-02-24T09:59:21.866Z,27.69
2019-02-24T10:01:48.493Z,29.21
2019-02-24T10:04:15.057Z,30.88
2019-02-24T10:06:41.636Z,31.96
2019-02-24T10:09:08.228Z,33.16
2019-02-24T10:11:34.813Z,31.92
2019-02-24T10:14:01.359Z,33.25
2019-02-24T10:16:27.965Z,28.03
2019-02-24T10:18:54.544Z,24.84
2019-02-24T10:21:21.154Z,24.81
2019-02-24T10:23:48.278Z,27.73
2019-02-24T10:26:14.961Z,26.93
2019-02-24T10:28:41.582Z,28.83
2019-02-24T10:31:08.166Z,30.41
2019-02-24T10:33:34.720Z,27.88
2019-02-24T10:36:01.277Z,27.49
2019-02-24T10:38:27.853Z,28.53
2019-02-24T10:40:54.399Z,26.94
2019-02-24T10:43:20.990Z,27.80
2019-02-24T10:45:47.537Z,27.39
2019-02-24T10:48:14.476Z,28.90
2019-02-24T10:50:42.817Z,28.97
2019-02-24T10:53:09.398Z,24.53
2019-02-24T10:55:35.951Z,25.86
2019-02-24T10:58:02.535Z,29.79
2019-02-24T11:00:29.075Z,30.64
2019-02-24T11:02:55.638Z,32.67
2019-02-24T11:05:22.216Z,32.85
2019-02-24T11:07:48.773Z,31.65
2019-02-24T11:10:15.325Z,33.20
2019-02-24T11:12:41.904Z,34.52
2019-02-24T11:15:08.504Z,34.23
2019-02-24T11:17:35.066Z,34.34
2019-02-24T11:20:01.634Z,34.62
2019-02-24T11:22:28.207Z,33.59
2019-02-24T11:24:54.774Z,32.56
2019-02-24T11:27:21.376Z,34.76
2019-02-24T11:29:47.910Z,31.94
2019-02-24T11:32:14.504Z,31.26
2019-02-24T11:34:41.044Z,31.38
2019-02-24T11:37:07.851Z,30.11
2019-02-24T11:39:34.396Z,32.05
2019-02-24T11:42:00.944Z,31.79
2019-02-24T11:44:27.516Z,27.71
2019-02-24T11:46:54.110Z,25.77
2019-02-24T11:49:20.688Z,25.32
2019-02-24T11:51:47.286Z,29.46
2019-02-24T11:54:13.845Z,32.48
2019-02-24T11:56:40.438Z,34.70
2019-02-24T11:59:07.010Z,37.78
2019-02-24T12:01:33.551Z,38.81
2019-02-24T12:04:00.116Z,39.26
2019-02-24T12:06:26.656Z,40.52
2019-02-24T12:08:53.217Z,38.63
2019-02-24T12:11:19.788Z,36.81
2019-02-24T12:13:46.326Z,37.95
2019-02-24T12:16:12.962Z,37.43
2019-02-24T12:18:39.500Z,38.85
2019-02-24T12:21:06.100Z,36.01
2019-02-24T12:23:32.663Z,34.17
2019-02-24T12:25:59.254Z,35.04
2019-02-24T12:28:25.854Z,36.92
2019-02-24T12:30:52.443Z,37.78
2019-02-24T12:33:19.014Z,38.43
2019-02-24T12:35:45.587Z,37.54
2019-02-24T12:38:12.131Z,32.91
2019-02-24T12:40:38.899Z,32.06
2019-02-24T12:43:05.480Z,33.32
2019-02-24T12:45:32.056Z,36.22
2019-02-24T12:48:00.354Z,38.97
2019-02-24T12:50:27.017Z,38.87
2019-02-24T12:52:53.575Z,37.02
2019-02-24T12:55:20.164Z,34.22
2019-02-24T12:57:46.707Z,33.69
2019-02-24T13:00:15.836Z,34.67
2019-02-24T13:02:42.389Z,29.81
2019-02-24T13:05:08.966Z,30.71
2019-02-24T13:07:35.552Z,31.44
2019-02-24T13:10:02.350Z,31.84
2019-02-24T13:15:03.435Z,29.99
2019-02-24T13:17:30.093Z,31.97
2019-02-24T13:19:56.717Z,32.18
2019-02-24T13:22:23.260Z,34.74
2019-02-24T13:24:49.867Z,33.83
2019-02-24T13:27:16.430Z,35.85
2019-02-24T13:29:43.007Z,36.86
2019-02-24T13:32:14.953Z,33.47
2019-02-24T13:34:38.037Z,35.59
2019-02-24T13:37:04.583Z,35.74
2019-02-24T13:39:31.152Z,37.99
2019-02-24T13:41:57.733Z,36.87
2019-02-24T13:44:24.316Z,36.05
2019-02-24T13:46:50.856Z,35.06
2019-02-24T13:49:17.461Z,36.66
2019-02-24T13:51:44.040Z,35.31
2019-02-24T13:54:10.575Z,35.61
2019-02-24T13:56:37.195Z,34.32
2019-02-24T13:59:03.810Z,32.91
2019-02-24T14:01:30.491Z,32.66
2019-02-24T14:03:57.071Z,32.13
2019-02-24T14:06:24.968Z,32.42
2019-02-24T14:08:51.514Z,31.72
2019-02-24T14:11:18.083Z,30.56
2019-02-24T14:13:44.642Z,28.53
2019-02-24T14:16:11.212Z,28.44
2019-02-24T14:18:37.875Z,28.70
2019-02-24T14:21:04.458Z,29.98
2019-02-24T14:23:31.013Z,30.10
2019-02-24T14:25:57.588Z,30.48
2019-02-24T14:28:24.203Z,31.87
2019-02-24T14:30:50.774Z,33.83
2019-02-24T14:33:17.363Z,31.78
2019-02-24T14:35:43.937Z,33.37
2019-02-24T14:38:10.578Z,34.20
2019-02-24T14:40:37.153Z,32.51
2019-02-24T14:43:03.726Z,30.98
2019-02-24T14:45:30.291Z,30.32
2019-02-24T14:47:56.880Z,27.95
2019-02-24T14:50:23.463Z,25.96
2019-02-24T14:52:50.013Z,26.22
2019-02-24T14:55:16.633Z,25.29
2019-02-24T14:57:43.291Z,27.02
2019-02-24T15:00:10.952Z,28.23
2019-02-24T15:02:42.433Z,27.01
2019-02-24T15:05:06.862Z,27.10
2019-02-24T15:07:33.408Z,27.43
2019-02-24T15:09:59.967Z,27.43
2019-02-24T15:12:26.531Z,25.88
2019-02-24T15:14:53.189Z,27.47
2019-02-24T15:17:19.752Z,28.13
2019-02-24T15:19:46.287Z,26.52
2019-02-24T15:22:12.854Z,24.24
2019-02-24T15:24:39.396Z,24.31
2019-02-24T15:27:05.972Z,24.31
2019-02-24T15:29:32.519Z,24.32
2019-02-24T15:31:59.118Z,24.37
2019-02-24T15:34:25.714Z,24.04
2019-02-24T15:36:52.300Z,23.38
2019-02-24T15:39:18.955Z,23.42
2019-02-24T15:41:45.621Z,21.94
2019-02-24T15:44:12.423Z,20.56
2019-02-24T15:46:39.208Z,20.12
2019-02-24T15:49:05.746Z,19.67
2019-02-24T15:51:32.332Z,19.66
2019-02-24T15:53:58.871Z,18.71
2019-02-24T15:56:25.434Z,17.76
2019-02-24T15:58:51.969Z,17.07
2019-02-24T16:01:18.525Z,16.46
2019-02-24T16:03:45.098Z,16.16
2019-02-24T16:06:11.676Z,16.00
2019-02-24T16:08:38.218Z,15.87
2019-02-24T16:11:04.777Z,15.75
2019-02-24T16:13:31.332Z,15.71
2019-02-24T16:15:57.864Z,15.64
2019-02-24T16:18:24.431Z,15.56
2019-02-24T16:20:50.964Z,15.39
2019-02-24T16:23:17.533Z,15.17
2019-02-24T16:25:44.068Z,15.05
2019-02-24T16:28:10.627Z,14.90
2019-02-24T16:30:37.179Z,14.80
2019-02-24T16:33:10.204Z,14.71
2019-02-24T16:35:32.341Z,15.54
2019-02-24T16:37:58.913Z,16.37
2019-02-24T16:40:25.530Z,16.52
2019-02-24T16:42:52.080Z,16.06
2019-02-24T16:45:18.643Z,15.39
2019-02-24T16:47:45.211Z,14.71
2019-02-24T16:50:12.781Z,14.07
2019-02-24T16:52:39.347Z,13.70
2019-02-24T16:55:07.082Z,13.21
2019-02-24T16:57:33.630Z,12.87
2019-02-24T17:00:00.301Z,12.52
2019-02-24T17:02:26.872Z,12.25
2019-02-24T17:04:53.414Z,12.10
2019-02-24T17:07:19.989Z,11.80
2019-02-24T17:09:46.528Z,11.72
2019-02-24T17:12:13.099Z,11.64
2019-02-24T17:14:39.699Z,11.51
2019-02-24T17:17:07.642Z,11.33
2019-02-24T17:19:34.197Z,11.26
2019-02-24T17:22:00.738Z,11.15
2019-02-24T17:24:27.303Z,11.08
2019-02-24T17:26:53.848Z,11.00
2019-02-24T17:29:20.403Z,10.83
2019-02-24T17:31:46.962Z,10.80
2019-02-24T17:34:13.532Z,10.67
2019-02-24T17:36:40.125Z,10.55
2019-02-24T17:39:06.696Z,10.45
2019-02-24T17:41:33.247Z,10.27
2019-02-24T17:43:59.859Z,10.29
2019-02-24T17:46:26.398Z,10.12
2019-02-24T17:48:52.954Z,10.13
2019-02-24T17:51:21.551Z,10.10
2019-02-24T17:53:47.979Z,9.93
2019-02-24T17:56:14.541Z,9.82
2019-02-24T17:58:41.233Z,9.87
2019-02-24T18:01:07.888Z,9.66
2019-02-24T18:03:39.584Z,9.58
2019-02-24T18:06:02.925Z,9.43
2019-02-24T18:08:29.487Z,9.26
2019-02-24T18:10:56.024Z,9.33
2019-02-24T18:13:22.583Z,9.48
2019-02-24T18:15:49.128Z,9.33
2019-02-24T18:18:15.695Z,9.40
2019-02-24T18:20:42.262Z,9.36
2019-02-24T18:23:08.820Z,9.22
2019-02-24T18:25:35.442Z,9.08
2019-02-24T18:28:02.089Z,8.97
2019-02-24T18:30:28.760Z,8.86
2019-02-24T18:32:55.349Z,8.76
2019-02-24T18:35:21.902Z,8.63
2019-02-24T18:37:48.460Z,8.77
2019-02-24T18:40:15.279Z,8.53
2019-02-24T18:42:41.808Z,8.54
2019-02-24T18:45:08.844Z,8.47
2019-02-24T18:47:35.383Z,8.44
2019-02-24T18:50:02.084Z,8.32
2019-02-24T18:52:28.618Z,8.37
2019-02-24T18:54:55.221Z,8.32
2019-02-24T18:57:21.766Z,8.19
2019-02-24T18:59:48.350Z,8.07
2019-02-24T19:02:14.906Z,8.05
2019-02-24T19:04:41.490Z,7.90
2019-02-24T19:07:08.020Z,7.81
2019-02-24T19:09:34.708Z,7.80
2019-02-24T19:12:01.273Z,7.69
2019-02-24T19:14:27.824Z,7.69
2019-02-24T19:16:54.368Z,7.63
2019-02-24T19:19:25.553Z,7.57
2019-02-24T19:21:49.387Z,7.60
2019-02-24T19:24:15.967Z,7.61
2019-02-24T19:26:42.494Z,7.78
2019-02-24T19:29:09.132Z,7.59
2019-02-24T19:31:35.661Z,7.39
2019-02-24T19:34:06.588Z,7.24
2019-02-24T19:36:30.643Z,7.19
2019-02-24T19:38:57.188Z,7.04
2019-02-24T19:41:23.748Z,6.96
2019-02-24T19:43:50.325Z,6.90
2019-02-24T19:46:16.888Z,6.85
2019-02-24T19:48:43.444Z,6.81
2019-02-24T19:51:10.013Z,6.71
2019-02-24T19:53:36.553Z,7.03
2019-02-24T19:56:03.107Z,6.86
2019-02-24T19:58:29.643Z,6.71
2019-02-24T20:00:56.202Z,6.71
2019-02-24T20:03:22.941Z,6.72
2019-02-24T20:05:49.494Z,6.53
2019-02-24T20:08:17.343Z,6.55
2019-02-24T20:10:43.903Z,6.60
2019-02-24T20:13:10.460Z,6.58
2019-02-24T20:15:36.990Z,6.65
2019-02-24T20:18:03.549Z,6.72
2019-02-24T20:20:30.106Z,6.67
2019-02-24T20:22:56.640Z,6.74
2019-02-24T20:25:23.204Z,6.73
2019-02-24T20:27:49.787Z,6.79
2019-02-24T20:30:21.357Z,6.91
2019-02-24T20:32:47.985Z,6.65
2019-02-24T20:35:14.541Z,6.31
2019-02-24T20:37:41.132Z,6.14
2019-02-24T20:40:07.685Z,5.98
2019-02-24T20:42:34.296Z,5.91
2019-02-24T20:45:00.829Z,5.84
2019-02-24T20:47:27.402Z,5.81
2019-02-24T20:49:53.946Z,5.80
2019-02-24T20:52:20.557Z,5.93
2019-02-24T20:54:47.118Z,6.19
2019-02-24T20:57:13.683Z,5.97
2019-02-24T20:59:40.255Z,5.87
2019-02-24T21:02:07.230Z,5.89
2019-02-24T21:04:33.803Z,5.66
2019-02-24T21:07:00.384Z,5.57
2019-02-24T21:09:26.940Z,5.55
2019-02-24T21:11:53.497Z,5.40
2019-02-24T21:14:20.041Z,5.33
2019-02-24T21:16:46.620Z,5.25
2019-02-24T21:19:13.162Z,5.18
2019-02-24T21:21:39.755Z,5.28
2019-02-24T21:24:06.303Z,5.29
2019-02-24T21:26:32.925Z,5.24
2019-02-24T21:28:59.491Z,5.16
2019-02-24T21:31:26.158Z,5.13
2019-02-24T21:33:52.727Z,5.18
2019-02-24T21:36:19.290Z,5.23
2019-02-24T21:38:45.835Z,5.57
2019-02-24T21:41:12.400Z,5.80
2019-02-24T21:43:38.947Z,5.82
2019-02-24T21:46:05.518Z,5.71
2019-02-24T21:48:32.068Z,5.68
2019-02-24T21:50:58.643Z,5.70
2019-02-24T21:53:25.193Z,5.42
2019-02-24T21:55:51.779Z,5.23
2019-02-24T21:58:18.340Z,5.11
2019-02-24T22:00:45.070Z,5.11
2019-02-24T22:03:11.646Z,5.28
2019-02-24T22:05:38.242Z,5.00
2019-02-24T22:08:04.788Z,5.00
2019-02-24T22:10:31.381Z,4.87
2019-02-24T22:12:59.415Z,4.79
2019-02-24T22:15:26.185Z,4.73
2019-02-24T22:17:52.803Z,4.86
2019-02-24T22:20:19.366Z,5.29
2019-02-24T22:22:46.036Z,5.29
2019-02-24T22:25:12.632Z,5.25
2019-02-24T22:27:39.211Z,5.23
2019-02-24T22:30:07.718Z,5.18
2019-02-24T22:32:34.291Z,4.76
2019-02-24T22:35:00.922Z,4.76
2019-02-24T22:37:27.515Z,4.84
2019-02-24T22:39:54.075Z,4.60
2019-02-24T22:42:20.649Z,4.49
2019-02-24T22:44:47.204Z,4.37
2019-02-24T22:47:13.768Z,4.27
2019-02-24T22:49:40.389Z,4.30
2019-02-24T22:52:06.940Z,4.23
2019-02-24T22:54:33.597Z,4.13
2019-02-24T22:57:00.177Z,4.19
2019-02-24T22:59:26.748Z,4.18
2019-02-24T23:01:53.478Z,4.05
2019-02-24T23:04:20.069Z,4.13
2019-02-24T23:06:46.636Z,4.21
2019-02-24T23:09:19.928Z,4.06
2019-02-24T23:11:46.598Z,4.11
2019-02-24T23:14:13.233Z,3.99
2019-02-24T23:16:39.719Z,3.90
2019-02-24T23:19:06.280Z,3.82
2019-02-24T23:21:32.846Z,3.82
2019-02-24T23:23:59.414Z,3.63
2019-02-24T23:26:25.950Z,3.61
2019-02-24T23:28:52.519Z,3.56
2019-02-24T23:31:19.076Z,3.54
2019-02-24T23:33:45.656Z,3.54
2019-02-24T23:36:12.211Z,3.66
2019-02-24T23:38:38.798Z,3.66
2019-02-24T23:41:05.342Z,3.50
2019-02-24T23:43:32.028Z,3.44
2019-02-24T23:45:58.594Z,3.30
2019-02-24T23:48:25.172Z,3.22
2019-02-24T23:50:51.746Z,3.20
2019-02-24T23:53:18.445Z,3.23
2019-02-24T23:55:45.009Z,3.29
2019-02-24T23:58:11.742Z,3.36
